createdAt,value
2023-09-13T00:00:54.248Z,1006.95
2023-09-13T00:01:54.335Z,1006.93
2023-09-13T00:02:54.325Z,1006.91
2023-09-13T00:03:54.340Z,1006.88
2023-09-13T00:04:54.321Z,1006.89
2023-09-13T00:05:54.146Z,1006.84
2023-09-13T00:06:54.166Z,1006.86
2023-09-13T00:07:54.132Z,1006.87
2023-09-13T00:08:54.121Z,1006.87
2023-09-13T00:09:54.142Z,1006.82
2023-09-13T00:10:54.101Z,1006.86
2023-09-13T00:11:54.076Z,1006.88
2023-09-13T00:12:54.116Z,1006.85
2023-09-13T00:13:54.062Z,1006.88
2023-09-13T00:14:54.049Z,1006.86
2023-09-13T00:15:54.067Z,1006.84
2023-09-13T00:16:54.119Z,1006.86
2023-09-13T00:17:54.043Z,1006.91
2023-09-13T00:18:54.071Z,1006.92
2023-09-13T00:19:53.988Z,1006.90
2023-09-13T00:20:53.976Z,1006.91
2023-09-13T00:21:54.035Z,1006.89
2023-09-13T00:22:53.958Z,1006.89
2023-09-13T00:23:53.940Z,1006.94
2023-09-13T00:24:54.033Z,1006.92
2023-09-13T00:25:53.979Z,1006.87
2023-09-13T00:26:53.987Z,1006.91
2023-09-13T00:27:53.966Z,1006.92
2023-09-13T00:28:53.989Z,1006.91
2023-09-13T00:29:53.985Z,1006.92
2023-09-13T00:30:53.926Z,1006.96
2023-09-13T00:31:53.883Z,1006.95
2023-09-13T00:32:53.889Z,1006.95
2023-09-13T00:33:53.901Z,1006.94
2023-09-13T00:34:53.821Z,1006.93
2023-09-13T00:35:53.824Z,1006.96
2023-09-13T00:36:53.822Z,1006.94
2023-09-13T00:37:53.810Z,1006.98
2023-09-13T00:38:53.837Z,1007.00
2023-09-13T00:39:53.804Z,1006.97
2023-09-13T00:40:53.770Z,1006.99
2023-09-13T00:41:53.748Z,1007.01
2023-09-13T00:42:53.757Z,1006.95
2023-09-13T00:43:53.763Z,1006.95
2023-09-13T00:44:53.740Z,1006.96
2023-09-13T00:45:53.765Z,1006.97
2023-09-13T00:46:53.751Z,1006.98
2023-09-13T00:47:53.743Z,1006.99
2023-09-13T00:48:53.703Z,1006.97
2023-09-13T00:49:53.747Z,1007.01
2023-09-13T00:50:54.685Z,1007.02
2023-09-13T00:51:53.653Z,1007.00
2023-09-13T00:52:53.636Z,1007.00
2023-09-13T00:53:53.617Z,1006.98
2023-09-13T00:54:53.636Z,1006.97
2023-09-13T00:55:53.643Z,1006.99
2023-09-13T00:56:53.609Z,1007.04
2023-09-13T00:57:53.609Z,1006.95
2023-09-13T00:58:53.578Z,1006.98
2023-09-13T00:59:53.600Z,1006.95
2023-09-13T01:00:53.577Z,1006.96
2023-09-13T01:01:53.594Z,1006.94
2023-09-13T01:02:53.564Z,1006.98
2023-09-13T01:03:53.615Z,1006.96
2023-09-13T01:04:53.565Z,1006.96
2023-09-13T01:05:53.539Z,1007.01
2023-09-13T01:06:53.543Z,1007.03
2023-09-13T01:07:54.284Z,1007.08
2023-09-13T01:08:53.517Z,1007.12
2023-09-13T01:09:53.593Z,1007.13
2023-09-13T01:10:53.456Z,1007.19
2023-09-13T01:11:53.427Z,1007.22
2023-09-13T01:12:53.439Z,1007.20
2023-09-13T01:13:53.415Z,1007.23
2023-09-13T01:14:53.399Z,1007.21
2023-09-13T01:15:53.525Z,1007.20
2023-09-13T01:16:53.465Z,1007.21
2023-09-13T01:17:53.441Z,1007.22
2023-09-13T01:18:53.372Z,1007.19
2023-09-13T01:19:53.330Z,1007.17
2023-09-13T01:20:53.339Z,1007.17
2023-09-13T01:21:53.384Z,1007.15
2023-09-13T01:22:53.306Z,1007.18
2023-09-13T01:23:53.286Z,1007.14
2023-09-13T01:24:53.309Z,1007.16
2023-09-13T01:25:53.269Z,1007.17
2023-09-13T01:26:53.300Z,1007.17
2023-09-13T01:27:53.279Z,1007.21
2023-09-13T01:28:53.234Z,1007.20
2023-09-13T01:29:53.233Z,1007.12
2023-09-13T01:30:53.254Z,1007.13
2023-09-13T01:31:53.245Z,1007.12
2023-09-13T01:32:53.243Z,1007.12
2023-09-13T01:33:53.194Z,1007.12
2023-09-13T01:34:53.171Z,1007.14
2023-09-13T01:35:53.153Z,1007.15
2023-09-13T01:36:53.180Z,1007.16
2023-09-13T01:37:53.186Z,1007.19
2023-09-13T01:38:53.137Z,1007.21
2023-09-13T01:39:53.132Z,1007.17
2023-09-13T01:40:53.116Z,1007.19
2023-09-13T01:41:53.088Z,1007.16
2023-09-13T01:42:53.139Z,1007.17
2023-09-13T01:43:53.067Z,1007.22
2023-09-13T01:44:53.134Z,1007.24
2023-09-13T01:45:53.167Z,1007.23
2023-09-13T01:46:53.126Z,1007.22
2023-09-13T01:47:53.089Z,1007.22
2023-09-13T01:48:53.059Z,1007.22
2023-09-13T01:49:53.003Z,1007.21
2023-09-13T01:50:52.992Z,1007.22
2023-09-13T01:51:52.996Z,1007.24
2023-09-13T01:52:52.997Z,1007.24
2023-09-13T01:53:52.982Z,1007.23
2023-09-13T01:54:53.003Z,1007.22
2023-09-13T01:55:52.960Z,1007.26
2023-09-13T01:56:52.926Z,1007.26
2023-09-13T01:57:52.943Z,1007.30
2023-09-13T01:58:52.950Z,1007.33
2023-09-13T01:59:52.900Z,1007.33
2023-09-13T02:00:52.930Z,1007.33
2023-09-13T02:01:52.996Z,1007.35
2023-09-13T02:02:53.032Z,1007.39
2023-09-13T02:03:52.862Z,1007.34
2023-09-13T02:04:52.881Z,1007.40
2023-09-13T02:05:52.832Z,1007.44
2023-09-13T02:06:52.851Z,1007.41
2023-09-13T02:07:52.811Z,1007.45
2023-09-13T02:08:52.813Z,1007.46
2023-09-13T02:09:52.878Z,1007.48
2023-09-13T02:10:52.778Z,1007.47
2023-09-13T02:11:52.775Z,1007.49
2023-09-13T02:12:52.801Z,1007.48
2023-09-13T02:13:52.750Z,1007.48
2023-09-13T02:14:52.734Z,1007.45
2023-09-13T02:15:52.861Z,1007.45
2023-09-13T02:16:52.740Z,1007.47
2023-09-13T02:17:52.728Z,1007.46
2023-09-13T02:18:52.696Z,1007.45
2023-09-13T02:19:52.681Z,1007.39
2023-09-13T02:20:52.701Z,1007.42
2023-09-13T02:21:52.738Z,1007.44
2023-09-13T02:22:52.655Z,1007.49
2023-09-13T02:23:52.638Z,1007.52
2023-09-13T02:24:52.658Z,1007.53
2023-09-13T02:25:52.637Z,1007.57
2023-09-13T02:26:52.608Z,1007.58
2023-09-13T02:27:52.647Z,1007.60
2023-09-13T02:28:52.602Z,1007.60
2023-09-13T02:29:52.579Z,1007.60
2023-09-13T02:30:52.608Z,1007.63
2023-09-13T02:31:52.606Z,1007.63
2023-09-13T02:32:52.665Z,1007.62
2023-09-13T02:33:52.601Z,1007.64
2023-09-13T02:34:52.536Z,1007.65
2023-09-13T02:35:52.507Z,1007.68
2023-09-13T02:36:52.514Z,1007.68
2023-09-13T02:37:52.485Z,1007.65
2023-09-13T02:38:52.506Z,1007.67
2023-09-13T02:39:52.501Z,1007.64
2023-09-13T02:40:52.455Z,1007.65
2023-09-13T02:41:52.473Z,1007.59
2023-09-13T02:42:52.474Z,1007.61
2023-09-13T02:43:52.431Z,1007.65
2023-09-13T02:44:52.460Z,1007.62
2023-09-13T02:45:52.444Z,1007.60
2023-09-13T02:46:52.417Z,1007.63
2023-09-13T02:47:52.389Z,1007.63
2023-09-13T02:48:52.415Z,1007.64
2023-09-13T02:49:52.355Z,1007.65
2023-09-13T02:50:52.405Z,1007.64
2023-09-13T02:51:52.397Z,1007.64
2023-09-13T02:52:52.324Z,1007.69
2023-09-13T02:53:52.327Z,1007.68
2023-09-13T02:54:52.324Z,1007.67
2023-09-13T02:55:52.297Z,1007.69
2023-09-13T02:56:52.303Z,1007.68
2023-09-13T02:57:52.301Z,1007.71
2023-09-13T02:58:52.272Z,1007.72
2023-09-13T02:59:52.259Z,1007.69
2023-09-13T03:00:52.302Z,1007.73
2023-09-13T03:01:52.384Z,1007.76
2023-09-13T03:02:52.327Z,1007.80
2023-09-13T03:03:52.324Z,1007.78
2023-09-13T03:04:52.201Z,1007.79
2023-09-13T03:05:52.184Z,1007.80
2023-09-13T03:06:52.205Z,1007.78
2023-09-13T03:07:52.163Z,1007.80
2023-09-13T03:08:52.171Z,1007.80
2023-09-13T03:09:52.176Z,1007.80
2023-09-13T03:10:52.130Z,1007.81
2023-09-13T03:11:52.123Z,1007.78
2023-09-13T03:12:52.127Z,1007.80
2023-09-13T03:13:52.125Z,1007.80
2023-09-13T03:14:52.135Z,1007.79
2023-09-13T03:15:52.123Z,1007.82
2023-09-13T03:16:52.074Z,1007.80
2023-09-13T03:17:52.131Z,1007.82
2023-09-13T03:18:52.135Z,1007.82
2023-09-13T03:19:52.029Z,1007.80
2023-09-13T03:20:52.040Z,1007.79
2023-09-13T03:21:52.044Z,1007.79
2023-09-13T03:22:51.995Z,1007.81
2023-09-13T03:23:51.987Z,1007.80
2023-09-13T03:24:51.997Z,1007.75
2023-09-13T03:25:51.957Z,1007.75
2023-09-13T03:26:51.984Z,1007.76
2023-09-13T03:27:51.987Z,1007.75
2023-09-13T03:28:51.926Z,1007.72
2023-09-13T03:29:51.931Z,1007.71
2023-09-13T03:30:51.990Z,1007.67
2023-09-13T03:31:51.986Z,1007.70
2023-09-13T03:32:52.436Z,1007.72
2023-09-13T03:33:51.935Z,1007.71
2023-09-13T03:34:51.855Z,1007.74
2023-09-13T03:35:51.840Z,1007.71
2023-09-13T03:36:51.869Z,1007.72
2023-09-13T03:37:51.831Z,1007.79
2023-09-13T03:38:51.847Z,1007.77
2023-09-13T03:39:51.857Z,1007.75
2023-09-13T03:40:51.794Z,1007.78
2023-09-13T03:41:51.772Z,1007.82
2023-09-13T03:42:51.788Z,1007.79
2023-09-13T03:43:51.748Z,1007.82
2023-09-13T03:44:51.759Z,1007.82
2023-09-13T03:45:51.793Z,1007.86
2023-09-13T03:46:51.788Z,1007.88
2023-09-13T03:47:51.735Z,1007.84
2023-09-13T03:48:51.714Z,1007.84
2023-09-13T03:49:51.684Z,1007.83
2023-09-13T03:50:51.700Z,1007.76
2023-09-13T03:51:51.687Z,1007.75
2023-09-13T03:52:51.654Z,1007.75
2023-09-13T03:53:51.647Z,1007.73
2023-09-13T03:54:51.713Z,1007.75
2023-09-13T03:55:51.622Z,1007.78
2023-09-13T03:56:51.630Z,1007.72
2023-09-13T03:57:51.696Z,1007.75
2023-09-13T03:58:51.592Z,1007.80
2023-09-13T03:59:51.583Z,1007.78
2023-09-13T04:00:51.614Z,1007.81
2023-09-13T04:01:51.590Z,1007.75
2023-09-13T04:02:51.639Z,1007.71
2023-09-13T04:03:51.609Z,1007.71
2023-09-13T04:04:51.616Z,1007.70
2023-09-13T04:05:51.578Z,1007.70
2023-09-13T04:06:51.795Z,1007.67
2023-09-13T04:07:51.497Z,1007.70
2023-09-13T04:08:51.498Z,1007.69
2023-09-13T04:09:51.511Z,1007.70
2023-09-13T04:10:51.476Z,1007.69
2023-09-13T04:11:51.463Z,1007.67
2023-09-13T04:12:51.444Z,1007.67
2023-09-13T04:13:51.428Z,1007.66
2023-09-13T04:14:51.434Z,1007.66
2023-09-13T04:15:51.447Z,1007.64
2023-09-13T04:16:51.505Z,1007.63
2023-09-13T04:17:51.443Z,1007.65
2023-09-13T04:18:51.402Z,1007.66
2023-09-13T04:19:51.366Z,1007.66
2023-09-13T04:20:51.364Z,1007.68
2023-09-13T04:21:51.396Z,1007.68
2023-09-13T04:22:51.327Z,1007.71
2023-09-13T04:23:51.313Z,1007.70
2023-09-13T04:24:51.342Z,1007.71
2023-09-13T04:25:51.294Z,1007.73
2023-09-13T04:26:51.308Z,1007.74
2023-09-13T04:27:51.342Z,1007.74
2023-09-13T04:28:51.269Z,1007.77
2023-09-13T04:29:51.249Z,1007.81
2023-09-13T04:30:51.326Z,1007.80
2023-09-13T04:31:51.296Z,1007.87
2023-09-13T04:32:51.282Z,1007.86
2023-09-13T04:33:51.271Z,1007.84
2023-09-13T04:34:51.202Z,1007.87
2023-09-13T04:35:51.194Z,1007.84
2023-09-13T04:36:51.230Z,1007.87
2023-09-13T04:37:51.173Z,1007.90
2023-09-13T04:38:51.207Z,1007.89
2023-09-13T04:39:51.182Z,1007.85
2023-09-13T04:40:51.135Z,1007.86
2023-09-13T04:41:51.122Z,1007.86
2023-09-13T04:42:51.165Z,1007.86
2023-09-13T04:43:51.123Z,1007.86
2023-09-13T04:44:51.121Z,1007.87
2023-09-13T04:45:51.188Z,1007.83
2023-09-13T04:46:51.130Z,1007.81
2023-09-13T04:47:51.076Z,1007.88
2023-09-13T04:48:51.087Z,1007.85
2023-09-13T04:49:51.055Z,1007.88
2023-09-13T04:50:51.046Z,1007.80
2023-09-13T04:51:51.021Z,1007.85
2023-09-13T04:52:51.010Z,1007.86
2023-09-13T04:53:50.992Z,1007.91
2023-09-13T04:54:51.031Z,1007.92
2023-09-13T04:55:50.968Z,1007.90
2023-09-13T04:56:50.979Z,1007.94
2023-09-13T04:57:50.971Z,1007.96
2023-09-13T04:58:50.953Z,1007.95
2023-09-13T04:59:50.926Z,1007.98
2023-09-13T05:00:50.959Z,1007.95
2023-09-13T05:01:51.076Z,1008.00
2023-09-13T05:02:50.953Z,1007.98
2023-09-13T05:03:51.442Z,1008.01
2023-09-13T05:04:50.963Z,1008.00
2023-09-13T05:05:50.897Z,1007.99
2023-09-13T05:06:50.875Z,1008.00
2023-09-13T05:07:50.853Z,1008.03
2023-09-13T05:08:50.850Z,1008.01
2023-09-13T05:09:50.880Z,1008.04
2023-09-13T05:10:50.810Z,1008.06
2023-09-13T05:11:50.794Z,1008.08
2023-09-13T05:12:50.813Z,1008.08
2023-09-13T05:13:50.782Z,1008.11
2023-09-13T05:14:50.796Z,1008.09
2023-09-13T05:15:50.974Z,1008.14
2023-09-13T05:16:50.984Z,1008.17
2023-09-13T05:17:52.840Z,1008.22
2023-09-13T05:18:50.739Z,1008.25
2023-09-13T05:19:50.713Z,1008.26
2023-09-13T05:20:50.726Z,1008.26
2023-09-13T05:21:50.729Z,1008.28
2023-09-13T05:22:50.685Z,1008.29
2023-09-13T05:23:50.664Z,1008.31
2023-09-13T05:24:50.668Z,1008.31
2023-09-13T05:25:50.675Z,1008.32
2023-09-13T05:26:50.634Z,1008.29
2023-09-13T05:27:50.702Z,1008.35
2023-09-13T05:28:50.657Z,1008.27
2023-09-13T05:29:50.678Z,1008.33
2023-09-13T05:30:50.774Z,1008.32
2023-09-13T05:31:50.684Z,1008.34
2023-09-13T05:32:50.597Z,1008.33
2023-09-13T05:33:50.594Z,1008.33
2023-09-13T05:34:50.551Z,1008.35
2023-09-13T05:35:50.548Z,1008.33
2023-09-13T05:36:50.558Z,1008.40
2023-09-13T05:37:51.403Z,1008.37
2023-09-13T05:38:50.505Z,1008.37
2023-09-13T05:39:50.513Z,1008.34
2023-09-13T05:40:50.475Z,1008.39
2023-09-13T05:41:50.485Z,1008.41
2023-09-13T05:42:50.472Z,1008.42
2023-09-13T05:43:50.470Z,1008.42
2023-09-13T05:44:50.428Z,1008.41
2023-09-13T05:45:50.474Z,1008.40
2023-09-13T05:46:50.562Z,1008.45
2023-09-13T05:47:50.457Z,1008.48
2023-09-13T05:48:50.431Z,1008.45
2023-09-13T05:49:50.373Z,1008.47
2023-09-13T05:50:50.358Z,1008.47
2023-09-13T05:51:50.453Z,1008.47
2023-09-13T05:52:50.358Z,1008.48
2023-09-13T05:53:50.356Z,1008.45
2023-09-13T05:54:50.341Z,1008.50
2023-09-13T05:55:50.307Z,1008.47
2023-09-13T05:56:50.292Z,1008.51
2023-09-13T05:57:50.327Z,1008.49
2023-09-13T05:58:50.288Z,1008.48
2023-09-13T05:59:50.260Z,1008.50
2023-09-13T06:00:50.340Z,1008.56
2023-09-13T06:01:50.283Z,1008.54
2023-09-13T06:02:50.288Z,1008.58
2023-09-13T06:03:50.301Z,1008.62
2023-09-13T06:04:50.263Z,1008.57
2023-09-13T06:05:50.192Z,1008.62
2023-09-13T06:06:50.240Z,1008.59
2023-09-13T06:07:50.200Z,1008.61
2023-09-13T06:08:50.158Z,1008.66
2023-09-13T06:09:50.214Z,1008.69
2023-09-13T06:10:50.134Z,1008.67
2023-09-13T06:11:50.125Z,1008.72
2023-09-13T06:12:50.165Z,1008.73
2023-09-13T06:13:50.120Z,1008.74
2023-09-13T06:14:50.089Z,1008.74
2023-09-13T06:15:50.168Z,1008.76
2023-09-13T06:16:50.189Z,1008.85
2023-09-13T06:17:50.112Z,1008.85
2023-09-13T06:18:50.090Z,1008.83
2023-09-13T06:19:50.034Z,1008.89
2023-09-13T06:20:50.031Z,1008.91
2023-09-13T06:21:50.024Z,1008.87
2023-09-13T06:22:49.999Z,1008.90
2023-09-13T06:23:50.013Z,1008.92
2023-09-13T06:24:50.022Z,1008.91
2023-09-13T06:25:49.990Z,1008.91
2023-09-13T06:26:49.956Z,1008.93
2023-09-13T06:27:49.988Z,1008.92
2023-09-13T06:28:50.080Z,1008.94
2023-09-13T06:29:49.930Z,1008.95
2023-09-13T06:31:01.721Z,1008.95
2023-09-13T06:32:04.671Z,1008.95
2023-09-13T06:33:07.546Z,1009.01
2023-09-13T06:33:51.060Z,1008.97
2023-09-13T06:34:49.994Z,1009.01
2023-09-13T06:35:50.433Z,1009.01
2023-09-13T06:36:50.364Z,1009.02
2023-09-13T06:37:50.051Z,1009.05
2023-09-13T06:38:50.076Z,1009.02
2023-09-13T06:39:50.647Z,1009.07
2023-09-13T06:40:50.009Z,1009.04
2023-09-13T06:41:49.982Z,1009.08
2023-09-13T06:43:00.525Z,1009.07
2023-09-13T06:44:06.316Z,1009.11
2023-09-13T06:44:51.272Z,1009.08
2023-09-13T06:46:03.112Z,1009.14
2023-09-13T06:46:59.203Z,1009.08
2023-09-13T06:47:50.971Z,1009.13
2023-09-13T06:48:50.783Z,1009.11
2023-09-13T06:49:50.905Z,1009.09
2023-09-13T06:51:20.315Z,1009.11
2023-09-13T06:51:52.383Z,1009.13
2023-09-13T06:53:14.450Z,1009.12
2023-09-13T06:53:52.254Z,1009.12
2023-09-13T06:54:50.107Z,1009.12
2023-09-13T06:55:51.730Z,1009.15
2023-09-13T06:56:51.974Z,1009.17
2023-09-13T06:57:52.834Z,1009.17
2023-09-13T06:58:51.690Z,1009.19
2023-09-13T06:59:56.198Z,1009.21
2023-09-13T07:01:10.697Z,1009.20
2023-09-13T07:02:53.453Z,1009.21
2023-09-13T07:03:55.054Z,1009.27
2023-09-13T07:05:50.571Z,1009.31
2023-09-13T07:06:49.645Z,1009.30
2023-09-13T07:07:49.499Z,1009.29
2023-09-13T07:08:49.500Z,1009.35
2023-09-13T07:09:49.501Z,1009.32
2023-09-13T07:10:49.495Z,1009.34
2023-09-13T07:11:49.462Z,1009.36
2023-09-13T07:12:49.453Z,1009.38
2023-09-13T07:13:49.475Z,1009.41
2023-09-13T07:14:49.441Z,1009.38
2023-09-13T07:15:49.457Z,1009.40
2023-09-13T07:16:49.516Z,1009.40
2023-09-13T07:17:49.499Z,1009.38
2023-09-13T07:18:49.380Z,1009.42
2023-09-13T07:19:49.413Z,1009.48
2023-09-13T07:20:49.358Z,1009.47
2023-09-13T07:21:49.342Z,1009.47
2023-09-13T07:22:49.362Z,1009.47
2023-09-13T07:23:49.320Z,1009.44
2023-09-13T07:24:49.306Z,1009.48
2023-09-13T07:25:49.366Z,1009.48
2023-09-13T07:26:49.287Z,1009.54
2023-09-13T07:27:49.291Z,1009.50
2023-09-13T07:28:49.345Z,1009.48
2023-09-13T07:29:49.394Z,1009.52
2023-09-13T07:30:49.341Z,1009.54
2023-09-13T07:31:49.282Z,1009.52
2023-09-13T07:32:49.242Z,1009.51
2023-09-13T07:33:49.210Z,1009.51
2023-09-13T07:34:49.236Z,1009.52
2023-09-13T07:35:49.206Z,1009.54
2023-09-13T07:36:49.172Z,1009.57
2023-09-13T07:37:49.255Z,1009.59
2023-09-13T07:38:49.162Z,1009.53
2023-09-13T07:39:49.178Z,1009.59
2023-09-13T07:40:49.192Z,1009.57
2023-09-13T07:41:49.119Z,1009.59
2023-09-13T07:42:49.107Z,1009.62
2023-09-13T07:43:49.123Z,1009.65
2023-09-13T07:44:49.091Z,1009.65
2023-09-13T07:45:49.170Z,1009.67
2023-09-13T07:46:49.423Z,1009.71
2023-09-13T07:47:49.086Z,1009.72
2023-09-13T07:48:49.046Z,1009.70
2023-09-13T07:49:49.084Z,1009.74
2023-09-13T07:50:49.018Z,1009.74
2023-09-13T07:51:49.021Z,1009.74
2023-09-13T07:53:50.017Z,1009.76
2023-09-13T07:54:48.978Z,1009.75
2023-09-13T07:55:48.991Z,1009.79
2023-09-13T07:56:48.962Z,1009.80
2023-09-13T07:57:48.948Z,1009.82
2023-09-13T07:58:49.122Z,1009.85
2023-09-13T07:59:48.919Z,1009.84
2023-09-13T08:00:48.952Z,1009.85
2023-09-13T08:01:48.980Z,1009.88
2023-09-13T08:02:48.908Z,1009.87
2023-09-13T08:03:48.963Z,1009.89
2023-09-13T08:04:48.902Z,1009.89
2023-09-13T08:05:49.048Z,1009.83
2023-09-13T08:06:48.845Z,1009.85
2023-09-13T08:07:48.885Z,1009.86
2023-09-13T08:08:48.835Z,1009.89
2023-09-13T08:09:48.807Z,1009.91
2023-09-13T08:10:48.849Z,1009.91
2023-09-13T08:11:48.783Z,1009.90
2023-09-13T08:12:48.788Z,1009.90
2023-09-13T08:13:48.794Z,1009.95
2023-09-13T08:14:48.749Z,1009.92
2023-09-13T08:15:49.855Z,1009.98
2023-09-13T08:16:48.838Z,1010.02
2023-09-13T08:17:48.828Z,1010.07
2023-09-13T08:18:48.981Z,1010.03
2023-09-13T08:19:51.139Z,1010.04
2023-09-13T08:20:48.718Z,1010.04
2023-09-13T08:21:48.672Z,1010.09
2023-09-13T08:22:48.752Z,1010.07
2023-09-13T08:23:48.650Z,1010.09
2023-09-13T08:24:48.650Z,1010.06
2023-09-13T08:25:48.693Z,1010.05
2023-09-13T08:26:48.633Z,1010.08
2023-09-13T08:27:48.619Z,1010.06
2023-09-13T08:28:48.631Z,1010.08
2023-09-13T08:29:48.604Z,1010.15
2023-09-13T08:30:48.620Z,1010.10
2023-09-13T08:31:48.609Z,1010.11
2023-09-13T08:32:48.572Z,1010.13
2023-09-13T08:33:48.592Z,1010.14
2023-09-13T08:34:48.590Z,1010.19
2023-09-13T08:35:48.525Z,1010.17
2023-09-13T08:36:48.507Z,1010.26
2023-09-13T08:37:48.545Z,1010.25
2023-09-13T08:38:48.504Z,1010.25
2023-09-13T08:39:48.484Z,1010.25
2023-09-13T08:40:48.528Z,1010.29
2023-09-13T08:41:48.456Z,1010.35
2023-09-13T08:42:48.447Z,1010.29
2023-09-13T08:43:48.455Z,1010.37
2023-09-13T08:44:48.438Z,1010.32
2023-09-13T08:45:48.415Z,1010.33
2023-09-13T08:46:48.517Z,1010.35
2023-09-13T08:47:58.026Z,1010.40
2023-09-13T08:48:49.479Z,1010.43
2023-09-13T08:49:48.428Z,1010.47
2023-09-13T08:50:48.359Z,1010.47
2023-09-13T08:51:48.353Z,1010.46
2023-09-13T08:52:48.357Z,1010.47
2023-09-13T08:53:48.324Z,1010.51
2023-09-13T08:54:58.653Z,1010.43
2023-09-13T08:55:49.340Z,1010.48
2023-09-13T08:56:48.299Z,1010.50
2023-09-13T08:57:48.276Z,1010.50
2023-09-13T08:58:48.290Z,1010.51
2023-09-13T08:59:48.289Z,1010.55
2023-09-13T09:00:48.248Z,1010.56
2023-09-13T09:01:48.320Z,1010.56
2023-09-13T09:02:48.455Z,1010.58
2023-09-13T09:03:48.310Z,1010.62
2023-09-13T09:04:48.240Z,1010.64
2023-09-13T09:05:48.241Z,1010.66
2023-09-13T09:06:48.177Z,1010.65
2023-09-13T09:07:49.041Z,1010.69
2023-09-13T09:08:48.187Z,1010.63
2023-09-13T09:09:48.245Z,1010.65
2023-09-13T09:10:48.151Z,1010.65
2023-09-13T09:11:48.168Z,1010.59
2023-09-13T09:12:48.127Z,1010.63
2023-09-13T09:13:48.151Z,1010.67
2023-09-13T09:14:48.118Z,1010.66
2023-09-13T09:15:48.167Z,1010.65
2023-09-13T09:16:48.275Z,1010.67
2023-09-13T09:17:48.126Z,1010.66
2023-09-13T09:18:48.046Z,1010.69
2023-09-13T09:19:48.098Z,1010.72
2023-09-13T09:20:48.033Z,1010.73
2023-09-13T09:21:48.046Z,1010.73
2023-09-13T09:22:48.024Z,1010.71
2023-09-13T09:23:48.071Z,1010.73
2023-09-13T09:24:47.991Z,1010.72
2023-09-13T09:25:47.999Z,1010.73
2023-09-13T09:26:47.986Z,1010.74
2023-09-13T09:27:47.974Z,1010.73
2023-09-13T09:28:49.249Z,1010.72
2023-09-13T09:29:47.967Z,1010.76
2023-09-13T09:30:47.933Z,1010.77
2023-09-13T09:31:47.995Z,1010.76
2023-09-13T09:32:47.963Z,1010.75
2023-09-13T09:33:47.892Z,1010.80
2023-09-13T09:34:47.939Z,1010.81
2023-09-13T09:35:47.879Z,1010.75
2023-09-13T09:36:47.864Z,1010.78
2023-09-13T09:37:47.942Z,1010.75
2023-09-13T09:38:47.837Z,1010.71
2023-09-13T09:39:47.814Z,1010.70
2023-09-13T09:40:47.857Z,1010.70
2023-09-13T09:41:47.843Z,1010.69
2023-09-13T09:42:47.789Z,1010.67
2023-09-13T09:43:47.870Z,1010.70
2023-09-13T09:44:47.762Z,1010.69
2023-09-13T09:45:47.807Z,1010.74
2023-09-13T09:46:47.754Z,1010.76
2023-09-13T09:47:47.770Z,1010.76
2023-09-13T09:48:47.721Z,1010.73
2023-09-13T09:49:47.809Z,1010.77
2023-09-13T09:50:47.708Z,1010.80
2023-09-13T09:51:47.707Z,1010.78
2023-09-13T09:52:47.687Z,1010.80
2023-09-13T09:53:47.683Z,1010.81
2023-09-13T09:54:47.662Z,1010.77
2023-09-13T09:55:47.650Z,1010.79
2023-09-13T09:56:47.682Z,1010.79
2023-09-13T09:57:47.628Z,1010.77
2023-09-13T09:58:47.854Z,1010.78
2023-09-13T09:59:47.596Z,1010.76
2023-09-13T10:00:47.601Z,1010.77
2023-09-13T10:01:47.656Z,1010.74
2023-09-13T10:02:47.774Z,1010.76
2023-09-13T10:03:47.638Z,1010.79
2023-09-13T10:04:47.800Z,1010.82
2023-09-13T10:05:47.525Z,1010.80
2023-09-13T10:06:47.525Z,1010.81
2023-09-13T10:07:47.533Z,1010.81
2023-09-13T10:08:48.997Z,1010.84
2023-09-13T10:09:47.524Z,1010.82
2023-09-13T10:10:47.491Z,1010.84
2023-09-13T10:11:47.464Z,1010.81
2023-09-13T10:12:47.451Z,1010.85
2023-09-13T10:13:47.497Z,1010.85
2023-09-13T10:14:47.474Z,1010.85
2023-09-13T10:15:47.496Z,1010.87
2023-09-13T10:16:47.440Z,1010.78
2023-09-13T10:17:47.424Z,1010.79
2023-09-13T10:18:47.384Z,1010.83
2023-09-13T10:19:47.407Z,1010.79
2023-09-13T10:20:47.394Z,1010.83
2023-09-13T10:21:47.357Z,1010.85
2023-09-13T10:22:47.380Z,1010.83
2023-09-13T10:23:47.328Z,1010.82
2023-09-13T10:24:47.317Z,1010.90
2023-09-13T10:25:47.349Z,1010.85
2023-09-13T10:26:47.312Z,1010.88
2023-09-13T10:27:47.285Z,1010.88
2023-09-13T10:28:47.685Z,1010.84
2023-09-13T10:29:47.284Z,1010.94
2023-09-13T10:30:48.022Z,1010.92
2023-09-13T10:31:47.412Z,1010.97
2023-09-13T10:32:47.265Z,1010.92
2023-09-13T10:33:47.221Z,1010.95
2023-09-13T10:34:47.283Z,1010.92
2023-09-13T10:35:47.194Z,1010.91
2023-09-13T10:36:47.201Z,1010.90
2023-09-13T10:37:47.194Z,1010.88
2023-09-13T10:38:47.291Z,1010.91
2023-09-13T10:39:47.155Z,1010.92
2023-09-13T10:40:47.174Z,1010.91
2023-09-13T10:41:47.177Z,1010.88
2023-09-13T10:42:47.138Z,1010.87
2023-09-13T10:43:47.134Z,1010.90
2023-09-13T10:44:47.096Z,1010.90
2023-09-13T10:45:47.087Z,1010.88
2023-09-13T10:46:47.164Z,1010.82
2023-09-13T10:47:47.151Z,1010.82
2023-09-13T10:48:47.195Z,1010.85
2023-09-13T10:49:47.075Z,1010.90
2023-09-13T10:50:47.033Z,1010.88
2023-09-13T10:51:47.027Z,1010.94
2023-09-13T10:52:47.061Z,1010.99
2023-09-13T10:53:46.998Z,1010.95
2023-09-13T10:54:47.009Z,1010.95
2023-09-13T10:55:47.023Z,1010.94
2023-09-13T10:56:46.993Z,1010.96
2023-09-13T10:57:47.004Z,1010.98
2023-09-13T10:58:47.145Z,1011.00
2023-09-13T10:59:46.992Z,1010.95
2023-09-13T11:00:46.934Z,1011.01
2023-09-13T11:01:46.951Z,1011.00
2023-09-13T11:02:48.329Z,1010.99
2023-09-13T11:03:46.941Z,1010.98
2023-09-13T11:04:46.931Z,1011.01
2023-09-13T11:05:46.882Z,1011.02
2023-09-13T11:06:46.856Z,1010.98
2023-09-13T11:07:46.943Z,1010.96
2023-09-13T11:08:47.280Z,1010.95
2023-09-13T11:09:46.830Z,1011.00
2023-09-13T11:10:46.834Z,1010.96
2023-09-13T11:11:46.845Z,1010.97
2023-09-13T11:12:46.802Z,1010.95
2023-09-13T11:13:46.872Z,1011.00
2023-09-13T11:14:46.773Z,1010.99
2023-09-13T11:15:46.757Z,1010.98
2023-09-13T11:16:46.837Z,1010.96
2023-09-13T11:17:46.874Z,1011.00
2023-09-13T11:18:46.958Z,1011.00
2023-09-13T11:19:46.743Z,1011.00
2023-09-13T11:20:46.715Z,1011.05
2023-09-13T11:21:46.702Z,1011.05
2023-09-13T11:22:46.725Z,1011.03
2023-09-13T11:26:01.253Z,1011.07
2023-09-13T11:26:47.687Z,1011.06
2023-09-13T11:27:46.627Z,1011.09
2023-09-13T11:28:47.031Z,1011.11
2023-09-13T11:29:46.643Z,1011.15
2023-09-13T11:30:46.610Z,1011.10
2023-09-13T11:31:46.621Z,1011.09
2023-09-13T11:32:46.654Z,1011.08
2023-09-13T11:33:46.558Z,1011.13
2023-09-13T11:34:46.584Z,1011.12
2023-09-13T11:35:46.582Z,1011.08
2023-09-13T11:36:46.533Z,1011.11
2023-09-13T11:37:46.541Z,1011.04
2023-09-13T11:38:46.822Z,1011.07
2023-09-13T11:39:46.531Z,1011.06
2023-09-13T11:40:46.509Z,1011.05
2023-09-13T11:41:54.563Z,1011.09
2023-09-13T11:43:02.845Z,1011.08
2023-09-13T11:44:02.253Z,1011.14
2023-09-13T11:45:01.277Z,1011.15
2023-09-13T11:45:47.525Z,1011.25
2023-09-13T11:46:46.827Z,1011.19
2023-09-13T11:47:46.800Z,1011.25
2023-09-13T11:48:59.063Z,1011.27
2023-09-13T11:50:01.356Z,1011.24
2023-09-13T11:50:49.995Z,1011.20
2023-09-13T11:51:53.486Z,1011.21
2023-09-13T11:52:48.442Z,1011.19
2023-09-13T11:53:46.735Z,1011.23
2023-09-13T11:55:01.706Z,1011.19
2023-09-13T11:56:03.247Z,1011.20
2023-09-13T11:56:49.297Z,1011.20
2023-09-13T11:57:56.394Z,1011.20
2023-09-13T11:58:57.572Z,1011.24
2023-09-13T11:59:47.579Z,1011.21
2023-09-13T12:00:46.591Z,1011.21
2023-09-13T12:01:48.218Z,1011.28
2023-09-13T12:02:47.041Z,1011.30
2023-09-13T12:04:13.085Z,1011.30
2023-09-13T12:04:54.064Z,1011.31
2023-09-13T12:06:07.173Z,1011.38
2023-09-13T12:06:48.929Z,1011.32
2023-09-13T12:07:46.771Z,1011.35
2023-09-13T12:08:46.927Z,1011.38
2023-09-13T12:09:48.535Z,1011.34
2023-09-13T12:10:48.583Z,1011.39